M I D A S
Marine Information and Data Acquisition System
Tripno 1807 of the Zeeleeuw from 2009-11-16 07:53:23 to 2009-11-16 16:18:57
Back to CruiseResearch ActivitiesStationsMapUnderway DataData graphs

EquipmentUnitsComment
TimeDGPSUTC
LatitudeDGPSDM.mWGS84
LongitudeDGPSDM.mWGS84
HeadingGyrodeg 
SOGDGPSknotsSpeed over ground
COGDGPSdegCourse over ground
DepthEcho soundermeters200 kHz
Missing or incorrect values are displayed as -999
Navigation data collected by the RV Zeeleeuw from 2009-11-16 07:36:09 to 2009-11-16 16:26:54
Time Latitude Longitude Heading SOG COG Depth
2009-11-16 07:37:19 51°13.677 2°55.893 103.9 3 287 -999
2009-11-16 07:38:19 51°13.688 2°55.81 90.1 3.2 276 -999
2009-11-16 07:39:18 51°13.686 2°55.745 62.9 1.1 267 12.2
2009-11-16 07:40:16 51°13.698 2°55.741 11.1 1.5 357 12.7
2009-11-16 07:41:15 51°13.746 2°55.709 329.6 5.1 329 11.3
2009-11-16 07:42:15 51°13.842 2°55.628 335.3 7.4 335 10.6
2009-11-16 07:43:15 51°13.965 2°55.543 336.6 8.4 336 10.5
2009-11-16 07:44:15 51°14.097 2°55.449 336.2 9 335 10.4
2009-11-16 07:45:15 51°14.227 2°55.324 324 9.3 321 10.3
2009-11-16 07:46:15 51°14.328 2°55.132 303.9 9.8 300 10.5
2009-11-16 07:47:15 51°14.382 2°54.875 285.2 10.8 283 8.8
2009-11-16 07:48:15 51°14.415 2°54.582 275.3 11.5 269 9.6
2009-11-16 07:49:15 51°14.361 2°54.288 243.6 11.8 243 9.1
2009-11-16 07:50:15 51°14.265 2°54.012 240.3 12 242 8.9
2009-11-16 07:51:15 51°14.17 2°53.733 240.8 12 242 9.1
2009-11-16 07:52:15 51°14.079 2°53.45 242.5 12 244 9.2
2009-11-16 07:53:15 51°13.991 2°53.163 243.3 12 244 9.6
2009-11-16 07:54:15 51°13.905 2°52.875 244.6 12 244 10
2009-11-16 07:55:15 51°13.816 2°52.589 241.2 12 241 10.2
2009-11-16 07:56:15 51°13.716 2°52.312 238.2 12.1 240 10.3
2009-11-16 07:57:15 51°13.614 2°52.03 239 12.4 240 10.3
2009-11-16 07:58:15 51°13.512 2°51.743 239.5 12.4 241 10.5
2009-11-16 07:59:15 51°13.409 2°51.458 238.4 12.4 240 10.6
2009-11-16 08:00:15 51°13.307 2°51.172 239.1 12.4 241 10.8
2009-11-16 08:01:15 51°13.209 2°50.883 240.8 12.4 243 10.9
2009-11-16 08:02:15 51°13.114 2°50.592 241.5 12.4 243 11.1
2009-11-16 08:03:15 51°13.02 2°50.301 241.6 12.3 243 11.1
2009-11-16 08:04:15 51°12.926 2°50.012 241.2 12.3 243 11.3
2009-11-16 08:05:15 51°12.831 2°49.723 241.1 12.2 243 11.5
2009-11-16 08:06:15 51°12.738 2°49.434 241.2 12.3 243 11.7
2009-11-16 08:07:15 51°12.645 2°49.145 242.8 12.2 244 11.8
2009-11-16 08:08:15 51°12.563 2°48.85 244.7 12.2 246 11.8
2009-11-16 08:09:15 51°12.481 2°48.556 244.9 12.1 246 12.1
2009-11-16 08:10:15 51°12.399 2°48.263 244.5 12.1 246 12.3
2009-11-16 08:11:15 51°12.316 2°47.972 244.4 12 246 12.4
2009-11-16 08:12:15 51°12.234 2°47.683 244.5 12 246 12.5
2009-11-16 08:13:15 51°12.154 2°47.393 244.2 12 246 12.6
2009-11-16 08:14:15 51°12.072 2°47.105 244.3 12 246 12.7
2009-11-16 08:15:15 51°11.991 2°46.815 244 12.1 245 12.8
2009-11-16 08:16:15 51°11.918 2°46.515 251.5 12.2 254 12.8
2009-11-16 08:17:15 51°11.867 2°46.204 258.4 12.1 261 12.9
2009-11-16 08:18:15 51°11.847 2°45.885 266.9 12.1 267 12.9
2009-11-16 08:19:15 51°11.832 2°45.567 263.1 11.9 263 12.9
2009-11-16 08:20:15 51°11.804 2°45.255 261.1 11.9 262 12.7
2009-11-16 08:21:53 51°11.756 2°44.748 260.6 11.8 261 12.3
2009-11-16 08:22:53 51°11.725 2°44.44 260.3 11.7 261 12
2009-11-16 08:23:53 51°11.689 2°44.135 258.3 11.7 259 11.7
2009-11-16 08:24:53 51°11.652 2°43.832 258 11.7 259 11.5
2009-11-16 08:25:53 51°11.615 2°43.529 258.4 11.6 259 11.2
2009-11-16 08:26:53 51°11.578 2°43.227 258.4 11.6 259 10.8
2009-11-16 08:27:53 51°11.542 2°42.926 258.4 11.7 259 11.1
2009-11-16 08:28:53 51°11.504 2°42.625 258.5 11.6 259 11.3
2009-11-16 08:29:53 51°11.466 2°42.323 258.5 11.6 259 11.4
2009-11-16 08:30:53 51°11.427 2°42.022 258.5 11.6 259 11.5
2009-11-16 08:31:53 51°11.363 2°41.735 245.5 11.6 245 11.8
2009-11-16 08:32:53 51°11.282 2°41.456 244.1 11.6 245 12.1
2009-11-16 08:33:53 51°11.184 2°41.187 236.5 11.9 238 12.5
2009-11-16 08:34:53 51°11.083 2°40.916 237.4 11.9 239 13
2009-11-16 08:35:53 51°10.97 2°40.66 228.1 11.8 230 13.4
2009-11-16 08:36:53 51°10.831 2°40.441 218.1 11.7 220 13.8
2009-11-16 08:37:53 51°10.676 2°40.257 209.8 11.6 213 14
2009-11-16 08:38:53 51°10.501 2°40.136 197.1 11.5 201 13.9
2009-11-16 08:39:53 51°10.321 2°40.042 187.6 11.2 191 13.4
2009-11-16 08:40:53 51°10.144 2°40.049 164.7 8.8 166 12.3
2009-11-16 08:41:53 51°10.091 2°40.161 90.5 4.5 90 11.7
2009-11-16 08:42:53 51°10.091 2°40.266 108.1 3.2 114 11.6
2009-11-16 08:43:53 51°10.053 2°40.312 158.7 2.6 169 11.4
2009-11-16 08:44:53 51°10.013 2°40.29 216 2.6 226 11.2
2009-11-16 08:45:53 51°10.001 2°40.247 251.6 1.1 267 11.2
2009-11-16 08:46:53 51°10.003 2°40.236 281.3 0.4 305 11.3
2009-11-16 08:47:55 51°10.008 2°40.224 290.6 0.5 302 11.4
2009-11-16 08:48:53 51°10.012 2°40.213 289.4 0.5 305 11.4
2009-11-16 08:49:53 51°10.017 2°40.202 282.2 0.5 306 11.5
2009-11-16 08:50:53 51°10.022 2°40.191 276.7 0.5 302 11.6
2009-11-16 08:51:53 51°10.027 2°40.181 272.4 0.5 307 11.6
2009-11-16 08:52:53 51°10.032 2°40.172 270.8 0.5 317 11.6
2009-11-16 08:53:53 51°10.038 2°40.165 272.9 0.5 328 11.7
2009-11-16 08:54:53 51°10.043 2°40.159 274.9 0.4 332 11.8
2009-11-16 08:55:53 51°10.049 2°40.153 275.7 0.4 326 11.8
2009-11-16 08:56:53 51°10.055 2°40.148 275.9 0.4 330 12
2009-11-16 08:57:53 51°10.06 2°40.144 277.3 0.3 336 12
2009-11-16 08:58:53 51°10.065 2°40.14 275.2 0.4 338 12.1
2009-11-16 08:59:53 51°10.071 2°40.136 275.4 0.4 339 12.1
2009-11-16 09:00:53 51°10.077 2°40.133 275.4 0.3 342 12.2
2009-11-16 09:01:53 51°10.082 2°40.13 275 0.3 343 12.3
2009-11-16 09:02:53 51°10.088 2°40.129 275.2 0.4 351 12.3
2009-11-16 09:03:53 51°10.093 2°40.128 275.1 0.4 356 12.4
2009-11-16 09:04:53 51°10.099 2°40.127 274.5 0.4 359 12.4
2009-11-16 09:05:53 51°10.106 2°40.127 275.4 0.5 5 12.5
2009-11-16 09:06:53 51°10.114 2°40.128 275.6 0.5 4 12.6
2009-11-16 09:07:53 51°10.122 2°40.131 275.9 0.5 9 12.7
2009-11-16 09:08:53 51°10.131 2°40.135 276.6 0.5 12 12.7
2009-11-16 09:09:53 51°10.141 2°40.138 275.2 0.5 13 12.9
2009-11-16 09:10:53 51°10.148 2°40.141 273.8 0.5 18 12.9
2009-11-16 09:11:53 51°10.157 2°40.145 277.2 0.6 18 13
2009-11-16 09:12:53 51°10.166 2°40.15 280.8 0.6 26 13.1
2009-11-16 09:13:53 51°10.176 2°40.158 282.5 0.7 29 13.3
2009-11-16 09:14:53 51°10.186 2°40.169 283 0.7 34 13.3
2009-11-16 09:15:53 51°10.196 2°40.151 270.5 2 283 13.4
2009-11-16 09:16:53 51°10.204 2°40.05 274.5 5.6 278 13.7
2009-11-16 09:17:53 51°10.2 2°39.851 256.8 8.9 257 14.1
2009-11-16 09:18:53 51°10.137 2°39.602 245 10.7 246 14.2
2009-11-16 09:19:53 51°10.065 2°39.341 246.1 10.8 247 14.5
2009-11-16 09:20:53 51°9.995 2°39.08 246.1 10.7 247 14.6
2009-11-16 09:21:53 51°9.926 2°38.819 246.8 10.7 247 14.8
2009-11-16 09:22:53 51°9.858 2°38.559 246.9 10.6 247 15.1
2009-11-16 09:23:53 51°9.791 2°38.299 247.4 10.6 248 15.5
2009-11-16 09:24:53 51°9.725 2°38.041 247.6 10.6 248 15.6
2009-11-16 09:25:53 51°9.659 2°37.783 247.2 10.5 247 15.9
2009-11-16 09:26:53 51°9.613 2°37.562 265.7 5.6 272 16.5
2009-11-16 09:27:53 51°9.657 2°37.488 340.5 3.9 353 17.3
2009-11-16 09:28:53 51°9.726 2°37.526 24.9 4.9 30 18
2009-11-16 09:29:53 51°9.789 2°37.6 38.6 4.3 43 18.3
2009-11-16 09:30:53 51°9.833 2°37.683 52 4 55 18.4
2009-11-16 09:31:53 51°9.867 2°37.772 62.1 3.9 62 18.5
2009-11-16 09:32:53 51°9.892 2°37.863 68.5 3.7 67 18.2
2009-11-16 09:33:53 51°9.916 2°37.952 64.7 3.6 64 18
2009-11-16 09:34:53 51°9.946 2°38.037 59.1 3.7 60 18.4
2009-11-16 09:35:53 51°9.976 2°38.121 58.4 3.7 60 18.4
2009-11-16 09:36:53 51°10.007 2°38.205 57.8 3.7 59 18.4
2009-11-16 09:37:53 51°10.038 2°38.289 58 3.6 60 18.4
2009-11-16 09:38:53 51°10.068 2°38.372 58.4 3.6 61 18.3
2009-11-16 09:39:53 51°10.098 2°38.456 57.9 3.6 59 17.5
2009-11-16 09:40:53 51°10.129 2°38.54 59 3.7 60 18.1
2009-11-16 09:41:53 51°10.16 2°38.625 58.3 3.7 61 17.9
2009-11-16 09:42:53 51°10.19 2°38.71 58.8 3.7 61 17.7
2009-11-16 09:43:53 51°10.22 2°38.796 58.2 3.8 60 17.6
2009-11-16 09:44:53 51°10.251 2°38.885 58.9 3.9 62 17.8
2009-11-16 09:45:53 51°10.282 2°38.976 57.8 3.9 61 17.5
2009-11-16 09:46:53 51°10.316 2°39.068 57.4 4 61 17.9
2009-11-16 09:47:53 51°10.349 2°39.161 57.7 4 61 17.6
2009-11-16 09:48:53 51°10.382 2°39.254 59.6 4 61 17.4
2009-11-16 09:49:53 51°10.414 2°39.346 59.3 4 61 17.3
2009-11-16 09:50:53 51°10.446 2°39.44 59.1 4.1 62 17.3
2009-11-16 09:51:53 51°10.478 2°39.534 58.5 4.1 61 17.2
2009-11-16 09:52:53 51°10.511 2°39.63 59.4 4.2 61 17.1
2009-11-16 09:53:53 51°10.546 2°39.725 54.3 4.3 59 17.2
2009-11-16 09:54:53 51°10.585 2°39.822 53.8 4.2 58 17.1
2009-11-16 09:55:53 51°10.623 2°39.916 50.1 4.2 56 16.9
2009-11-16 09:56:53 51°10.663 2°40.008 50.8 4.2 57 16.8
2009-11-16 09:57:53 51°10.703 2°40.099 46.2 4.2 53 16.5
2009-11-16 09:58:53 51°10.747 2°40.185 37.1 4.1 48 16.5
2009-11-16 09:59:53 51°10.795 2°40.26 25.1 4 42 16.5
2009-11-16 10:00:53 51°10.843 2°40.335 40.9 4.1 52 16.4
2009-11-16 10:01:53 51°10.876 2°40.429 64.8 4 64 16.2
2009-11-16 10:02:53 51°10.902 2°40.524 75.3 3.9 70 16.1
2009-11-16 10:03:53 51°10.92 2°40.62 91.3 3.8 77 16
2009-11-16 10:04:53 51°10.929 2°40.721 104.4 3.8 83 15.8
2009-11-16 10:05:53 51°10.935 2°40.817 109.6 3.3 82 15.8
2009-11-16 10:06:53 51°10.945 2°40.895 115.2 2.8 77 15.7
2009-11-16 10:07:53 51°10.957 2°40.964 117.6 2.6 72 15.7
2009-11-16 10:08:53 51°10.97 2°41.026 120.6 2.5 69 15.6
2009-11-16 10:09:53 51°10.984 2°41.098 108.2 3.8 81 15.5
2009-11-16 10:10:53 51°11.033 2°41.236 35.2 7.7 40 15.3
2009-11-16 10:11:53 51°11.169 2°41.327 18.6 10.3 27 15.2
2009-11-16 10:12:53 51°11.342 2°41.473 25.9 12.5 32 14.9
2009-11-16 10:13:53 51°11.497 2°41.699 48.9 12.8 53 14.1
2009-11-16 10:14:53 51°11.601 2°41.997 63.8 13 65 13.6
2009-11-16 10:15:53 51°11.664 2°42.319 86 12.6 83 13
2009-11-16 10:16:53 51°11.674 2°42.655 95.8 12.8 92 12.7
2009-11-16 10:17:53 51°11.663 2°42.995 97.1 12.9 94 12.9
2009-11-16 10:18:53 51°11.652 2°43.337 97.3 12.9 93 13.3
2009-11-16 10:19:53 51°11.644 2°43.682 94.3 13.1 89 14.2
2009-11-16 10:20:53 51°11.651 2°44.03 90.8 13.2 87 14.8
2009-11-16 10:21:53 51°11.668 2°44.379 87.8 13.3 84 15.3
2009-11-16 10:22:53 51°11.695 2°44.728 86.1 13.3 83 15.6
2009-11-16 10:23:53 51°11.73 2°45.076 82.7 13.4 80 15.9
2009-11-16 10:25:49 51°11.823 2°45.745 80.8 13.4 78 16.1
2009-11-16 10:26:50 51°11.871 2°46.095 81.1 13.3 78 16
2009-11-16 10:27:49 51°11.92 2°46.431 77 13.4 72 16
2009-11-16 10:28:49 51°11.989 2°46.767 73.9 13.4 71 15.9
2009-11-16 10:29:50 51°12.059 2°47.097 74.3 11.3 71 15.9
2009-11-16 10:30:50 51°12.106 2°47.317 78.2 7 72 15.9
2009-11-16 10:31:50 51°12.135 2°47.463 86.8 5 73 15.9
2009-11-16 10:32:49 51°12.156 2°47.577 95.9 4.5 77 15.8
2009-11-16 10:33:50 51°12.171 2°47.718 100.3 5.8 84 15.7
2009-11-16 10:34:50 51°12.177 2°47.859 108.6 4.9 86 15.5
2009-11-16 10:35:50 51°12.184 2°47.981 106.8 4.6 83 15.2
2009-11-16 10:36:50 51°12.198 2°48.1 97.3 4.6 77 15.1
2009-11-16 10:37:50 51°12.219 2°48.215 86.1 4.6 70 14.8
2009-11-16 10:38:50 51°12.248 2°48.326 78.3 4.5 67 14.8
2009-11-16 10:39:49 51°12.274 2°48.433 87.1 4.3 70 14.7
2009-11-16 10:40:49 51°12.298 2°48.543 88 4.4 70 14.6
2009-11-16 10:41:49 51°12.325 2°48.654 83.9 4.5 68 14.4
2009-11-16 10:42:50 51°12.353 2°48.762 81.3 4.3 66 14.3
2009-11-16 10:43:49 51°12.381 2°48.861 79.9 4.2 64 14.3
2009-11-16 10:44:50 51°12.412 2°48.962 78.7 4.2 65 14.2
2009-11-16 10:45:49 51°12.442 2°49.062 77.7 4.3 64 14.1
2009-11-16 10:46:50 51°12.472 2°49.167 80.2 4.3 65 14.1
2009-11-16 10:47:50 51°12.501 2°49.271 79.9 4.3 66 14
2009-11-16 10:48:50 51°12.533 2°49.373 75.3 4.3 64 14.1
2009-11-16 10:49:50 51°12.565 2°49.475 73.8 4.3 63 14.1
2009-11-16 10:50:50 51°12.598 2°49.576 73.9 4.3 63 14.1
2009-11-16 10:51:49 51°12.63 2°49.676 73.7 4.3 62 14
2009-11-16 10:52:50 51°12.663 2°49.779 74.8 4.3 63 13.9
2009-11-16 10:53:50 51°12.697 2°49.88 73.7 4.3 63 13.9
2009-11-16 10:54:50 51°12.731 2°49.982 74.4 4.4 61 13.9
2009-11-16 10:55:50 51°12.765 2°50.085 74.8 4.4 64 13.9
2009-11-16 10:56:49 51°12.798 2°50.187 71.9 4.4 61 13.8
2009-11-16 10:57:50 51°12.835 2°50.291 69 4.4 60 13.8
2009-11-16 10:58:50 51°12.873 2°50.391 66.4 4.4 60 14
2009-11-16 10:59:50 51°12.911 2°50.49 64 4.4 57 13.9
2009-11-16 11:00:49 51°12.951 2°50.586 61.5 4.4 56 13.8
2009-11-16 11:01:50 51°12.993 2°50.684 57.1 4.4 54 13.9
2009-11-16 11:02:49 51°13.035 2°50.776 57.4 4.4 55 13.9
2009-11-16 11:03:50 51°13.073 2°50.874 68.5 4.3 60 13.9
2009-11-16 11:04:50 51°13.105 2°50.975 84.2 4.2 68 13.9
2009-11-16 11:05:50 51°13.127 2°51.077 96 4 71 13.9
2009-11-16 11:06:50 51°13.149 2°51.176 95.5 4 70 13.7
2009-11-16 11:07:50 51°13.17 2°51.273 99.8 3.9 71 13.6
2009-11-16 11:08:50 51°13.189 2°51.373 104.5 3.9 75 13.5
2009-11-16 11:09:50 51°13.205 2°51.469 111.1 3.5 71 13.4
2009-11-16 11:10:50 51°13.224 2°51.547 119.8 2.9 66 13.4
2009-11-16 11:11:50 51°13.244 2°51.612 128.8 2.7 63 13.3
2009-11-16 11:12:50 51°13.263 2°51.704 87.1 4.6 68 13.3
2009-11-16 11:13:50 51°13.325 2°51.801 7.2 5.4 19 13.3
2009-11-16 11:14:49 51°13.389 2°51.773 285.1 4.2 310 13.7
2009-11-16 11:15:50 51°13.422 2°51.643 269.4 4.1 288 14
2009-11-16 11:16:50 51°13.455 2°51.606 291.3 2.5 356 14.3
2009-11-16 11:17:50 51°13.493 2°51.624 289.4 2.3 23 14.3
2009-11-16 11:18:50 51°13.526 2°51.653 280.2 2.4 32 14.3
2009-11-16 11:19:50 51°13.559 2°51.691 279.1 2.6 39 14.4
2009-11-16 11:20:50 51°13.592 2°51.736 279.3 2.6 42 14.4
2009-11-16 11:21:50 51°13.623 2°51.796 288.2 3.1 53 14.3
2009-11-16 11:22:49 51°13.654 2°51.858 305.3 3 51 14.4
2009-11-16 11:23:50 51°13.685 2°51.919 314.7 3 50 14.3
2009-11-16 11:24:50 51°13.718 2°51.981 318 3 50 14.4
2009-11-16 11:25:49 51°13.75 2°52.042 311.9 3 50 14.3
2009-11-16 11:26:50 51°13.784 2°52.105 306.4 3 48 14.4
2009-11-16 11:27:49 51°13.811 2°52.174 304.9 3.6 67 14.3
2009-11-16 11:28:50 51°13.824 2°52.266 324.5 3.5 84 14.2
2009-11-16 11:29:49 51°13.844 2°52.334 329.6 3.1 32 14.2
2009-11-16 11:30:49 51°13.888 2°52.332 269.7 2 321 14.2
2009-11-16 11:31:50 51°13.894 2°52.313 231 0.4 354 14.4
2009-11-16 11:32:50 51°13.905 2°52.322 230.3 1.1 33 14.3
2009-11-16 11:33:49 51°13.923 2°52.343 228.5 1.5 42 14.3
2009-11-16 11:34:50 51°13.943 2°52.373 224.8 1.7 43 14.2
2009-11-16 11:35:50 51°13.946 2°52.402 185.8 2.4 129 14.3
2009-11-16 11:36:50 51°13.941 2°52.53 90 6.9 76 14.2
2009-11-16 11:37:50 51°13.991 2°52.765 69.4 11 65 14
2009-11-16 11:38:50 51°14.087 2°53.026 59.6 11.2 58 13.8
2009-11-16 11:39:50 51°14.183 2°53.275 60.6 11 59 13.7
2009-11-16 11:40:50 51°14.278 2°53.525 61.4 11 59 13.1
2009-11-16 11:41:50 51°14.372 2°53.787 66.2 12 64 13.2
2009-11-16 11:42:49 51°14.46 2°54.093 69.9 13.1 68 13.2
2009-11-16 11:43:50 51°14.573 2°54.397 53.3 13.2 53 13.7
2009-11-16 11:44:49 51°14.725 2°54.639 40.5 13.2 41 13
2009-11-16 11:45:50 51°14.895 2°54.871 39 13.2 40 12.5
2009-11-16 11:46:50 51°15.06 2°55.104 40 13.4 41 12.3
2009-11-16 11:47:50 51°15.226 2°55.341 40.2 13.4 42 11.5
2009-11-16 11:48:50 51°15.391 2°55.577 40.1 13.3 42 11.1
2009-11-16 11:49:50 51°15.555 2°55.811 39.6 13.1 41 11.1
2009-11-16 11:50:49 51°15.713 2°56.033 40.5 13 42 11.4
2009-11-16 11:51:50 51°15.871 2°56.272 47.5 12.9 49 11.8
2009-11-16 11:52:49 51°16.009 2°56.53 50.4 13.1 50 12
2009-11-16 11:53:50 51°16.152 2°56.801 50.1 13.1 50 12.1
2009-11-16 11:54:50 51°16.278 2°57.081 60.6 12.9 60 12.3
2009-11-16 11:55:49 51°16.374 2°57.382 66.1 12.9 65 12.4
2009-11-16 11:56:50 51°16.466 2°57.699 66.7 12.9 66 12.3
2009-11-16 11:57:49 51°16.558 2°58.002 65 12.9 63 12.4
2009-11-16 11:58:50 51°16.658 2°58.309 59.3 12.8 58 12.2
2009-11-16 11:59:49 51°16.78 2°58.582 53.1 12.9 54 12.4
2009-11-16 12:00:50 51°16.909 2°58.861 53.8 12.8 53 12.5
2009-11-16 12:01:49 51°17.031 2°59.132 54.8 12.7 54 12.6
2009-11-16 12:02:50 51°17.16 2°59.41 53.8 12.8 54 12.5
2009-11-16 12:03:50 51°17.288 2°59.687 52.5 13.1 53 12.5
2009-11-16 12:04:49 51°17.414 2°59.964 54.6 13.1 55 12.4
2009-11-16 12:05:50 51°17.543 3°0.255 54.9 13.3 54 12.4
2009-11-16 12:06:50 51°17.672 3°0.54 53.4 13.2 54 12.4
2009-11-16 12:07:50 51°17.802 3°0.825 54.3 13.3 54 12.2
2009-11-16 12:08:50 51°17.928 3°1.113 55.1 13.2 55 12.3
2009-11-16 12:09:50 51°18.056 3°1.397 53.4 13.2 53 12.3
2009-11-16 12:10:50 51°18.184 3°1.679 54.9 13 54 12.1
2009-11-16 12:11:50 51°18.31 3°1.958 54.4 12.9 55 11.8
2009-11-16 12:12:50 51°18.436 3°2.238 54.4 12.9 54 11.5
2009-11-16 12:13:50 51°18.562 3°2.514 54.8 12.8 55 11.3
2009-11-16 12:14:50 51°18.687 3°2.789 54.4 12.8 55 11.1
2009-11-16 12:15:49 51°18.812 3°3.061 54.4 13.1 54 11.2
2009-11-16 12:16:50 51°18.941 3°3.343 53.9 12.8 53 10.8
2009-11-16 12:17:49 51°19.066 3°3.614 55.2 12.9 54 10.9
2009-11-16 12:18:49 51°19.193 3°3.887 53.4 12.8 53 10.9
2009-11-16 12:19:49 51°19.319 3°4.159 54.9 12.8 54 11
2009-11-16 12:20:50 51°19.447 3°4.435 54.2 12.7 53 11
2009-11-16 12:21:49 51°19.57 3°4.704 55.2 12.7 54 11
2009-11-16 12:22:50 51°19.701 3°4.975 48.9 12.7 46 11
2009-11-16 12:23:50 51°19.856 3°5.205 40.8 12.6 41 11
2009-11-16 12:24:50 51°20.013 3°5.431 40.9 12.8 42 11
2009-11-16 12:25:50 51°20.17 3°5.658 41.8 12.7 43 10.8
2009-11-16 12:26:49 51°20.323 3°5.883 41.5 12.7 42 10.7
2009-11-16 12:27:50 51°20.481 3°6.119 42.4 12.8 43 10.5
2009-11-16 12:29:17 51°20.707 3°6.456 42.1 13 43 10.3
2009-11-16 12:30:18 51°20.866 3°6.691 42 12.7 41 10.7
2009-11-16 12:31:17 51°21.019 3°6.917 42.2 12.7 43 10.9
2009-11-16 12:32:17 51°21.171 3°7.154 48 12.8 49 11.5
2009-11-16 12:33:17 51°21.299 3°7.424 55.9 12.8 56 12
2009-11-16 12:34:18 51°21.425 3°7.708 54.8 12.9 56 12.7
2009-11-16 12:35:17 51°21.547 3°7.985 54.8 12.9 54 12.8
2009-11-16 12:36:17 51°21.672 3°8.27 56.3 13.3 57 13.3
2009-11-16 12:37:17 51°21.782 3°8.57 60.4 13 61 13.9
2009-11-16 12:38:17 51°21.888 3°8.868 60.7 12.8 59 14.4
2009-11-16 12:39:17 51°21.994 3°9.165 62.5 12.9 66 15.2
2009-11-16 12:40:17 51°22.076 3°9.478 72 12.8 70 15.7
2009-11-16 12:41:17 51°22.145 3°9.799 72.7 12.8 71 16.4
2009-11-16 12:42:17 51°22.214 3°10.125 73.4 13.1 71 16.9
2009-11-16 12:43:17 51°22.285 3°10.452 74.1 12.9 74 18.1
2009-11-16 12:44:17 51°22.338 3°10.774 79.3 11.1 77 19.7
2009-11-16 12:45:17 51°22.372 3°10.983 61.3 6.5 60 18.7
2009-11-16 12:46:17 51°22.43 3°11.082 8.3 4.1 41 18.5
2009-11-16 12:47:17 51°22.466 3°11.147 349.9 2.9 56 18.5
2009-11-16 12:48:17 51°22.491 3°11.211 335 2.9 59 18.5
2009-11-16 12:49:17 51°22.514 3°11.277 330.9 2.9 62 18.2
2009-11-16 12:50:17 51°22.535 3°11.344 331 2.9 65 18.5
2009-11-16 12:51:17 51°22.556 3°11.414 335.2 3 67 18
2009-11-16 12:52:17 51°22.575 3°11.486 338.5 2.8 67 18
2009-11-16 12:53:17 51°22.594 3°11.559 336.7 3 67 17.9
2009-11-16 12:54:17 51°22.614 3°11.631 335.8 2.9 66 17.4
2009-11-16 12:55:17 51°22.639 3°11.695 328.9 3 35 17.3
2009-11-16 12:56:18 51°22.68 3°11.682 272.2 2.2 313 17
2009-11-16 12:57:18 51°22.691 3°11.613 257.9 3.4 272 17.1
2009-11-16 12:58:18 51°22.69 3°11.514 254.8 3.8 265 16.9
2009-11-16 12:59:18 51°22.698 3°11.456 258.6 1.2 315 17
2009-11-16 13:00:18 51°22.718 3°11.455 264.7 1.5 16 16.8
2009-11-16 13:01:18 51°22.744 3°11.466 266.5 1.6 19 16.5
2009-11-16 13:02:18 51°22.77 3°11.481 268.6 1.7 19 16.6
2009-11-16 13:03:18 51°22.798 3°11.498 271.2 1.8 20 16.4
2009-11-16 13:04:18 51°22.824 3°11.522 269.2 2.1 41 16.3
2009-11-16 13:05:18 51°22.852 3°11.582 300.1 3.3 67 16.2
2009-11-16 13:06:18 51°22.871 3°11.659 327.4 2.9 70 15.9
2009-11-16 13:07:18 51°22.887 3°11.735 344.1 3.1 70 15.6
2009-11-16 13:08:18 51°22.905 3°11.81 349.9 3.1 68 15.9
2009-11-16 13:09:18 51°22.925 3°11.884 344.8 3.1 65 15.3
2009-11-16 13:10:18 51°22.945 3°11.956 336.4 2.9 64 15.5
2009-11-16 13:11:18 51°22.967 3°12.029 334.2 3 65 15.3
2009-11-16 13:12:18 51°22.987 3°12.1 334 2.9 65 15
2009-11-16 13:13:18 51°23.006 3°12.17 330.2 2.9 67 14.8
2009-11-16 13:14:18 51°23.025 3°12.241 328.4 2.9 67 14.7
2009-11-16 13:15:18 51°23.046 3°12.31 333.1 2.9 53 14.7
2009-11-16 13:16:18 51°23.1 3°12.359 3 5 28 14.5
2009-11-16 13:17:18 51°23.204 3°12.418 359.4 7.4 15 14.3
2009-11-16 13:18:18 51°23.328 3°12.441 343.7 8.2 358 14.2
2009-11-16 13:19:18 51°23.484 3°12.383 332.1 10.2 341 14.1
2009-11-16 13:20:18 51°23.617 3°12.231 302 9.6 312 13.8
2009-11-16 13:21:18 51°23.681 3°12.012 286.5 9.4 296 14.4
2009-11-16 13:22:18 51°23.727 3°11.782 269.7 8.9 278 14.6
2009-11-16 13:23:18 51°23.745 3°11.557 272.6 6.4 290 15.2
2009-11-16 13:24:18 51°23.819 3°11.514 335.4 4.8 359 15.4
2009-11-16 13:25:18 51°23.904 3°11.562 17 7.2 29 16.8
2009-11-16 13:26:18 51°24.006 3°11.669 50 6.7 57 18.2
2009-11-16 13:27:18 51°24.03 3°11.818 92.1 5.1 81 18.4
2009-11-16 13:28:18 51°24.034 3°11.941 110.4 4.5 93 18.1
2009-11-16 13:29:18 51°24.022 3°12.055 130.1 4.1 104 18.1
2009-11-16 13:30:18 51°24.008 3°12.163 125.6 4.2 98 16.9
2009-11-16 13:31:18 51°24.001 3°12.277 107.8 4.6 90 16.1
2009-11-16 13:32:18 51°23.997 3°12.393 114.7 4.2 94 15.6
2009-11-16 13:33:18 51°23.992 3°12.505 118 4.1 98 15.6
2009-11-16 13:34:18 51°23.979 3°12.607 133.6 4 103 15.6
2009-11-16 13:35:18 51°23.958 3°12.702 140.6 3.8 112 15.1
2009-11-16 13:36:18 51°23.936 3°12.801 138.6 3.9 108 15.2
2009-11-16 13:37:18 51°23.912 3°12.903 138.8 4.1 111 15.4
2009-11-16 13:38:18 51°23.889 3°13.007 139 4.3 108 15
2009-11-16 13:39:18 51°23.866 3°13.112 137.8 4.2 107 14.4
2009-11-16 13:40:18 51°23.843 3°13.218 138.8 4.3 110 14.2
2009-11-16 13:41:18 51°23.821 3°13.324 134.4 4.2 108 14
2009-11-16 13:42:18 51°23.802 3°13.435 130 4.3 106 14
2009-11-16 13:43:18 51°23.785 3°13.549 126.8 4.5 101 14.1
2009-11-16 13:44:18 51°23.772 3°13.667 120 4.6 99 13.9
2009-11-16 13:45:18 51°23.761 3°13.791 117.8 4.7 98 14
2009-11-16 13:46:18 51°23.753 3°13.91 118.9 4.4 97 14.1
2009-11-16 13:47:18 51°23.743 3°14.021 121.5 4.2 97 12.9
2009-11-16 13:48:18 51°23.737 3°14.13 115.6 4.1 93 14.1
2009-11-16 13:49:18 51°23.734 3°14.241 110.4 4.1 91 14
2009-11-16 13:50:18 51°23.733 3°14.353 108.8 4.1 90 14.1
2009-11-16 13:51:18 51°23.734 3°14.466 106.7 4.3 89 14
2009-11-16 13:52:18 51°23.736 3°14.579 106.3 4.2 90 13.2
2009-11-16 13:53:18 51°23.736 3°14.69 107.1 4.1 90 13.1
2009-11-16 13:54:18 51°23.735 3°14.799 105.3 4.1 89 14.2
2009-11-16 13:55:18 51°23.736 3°14.908 105.4 4.1 89 14.2
2009-11-16 13:56:18 51°23.738 3°15.019 100 4.2 87 13.7
2009-11-16 13:57:18 51°23.742 3°15.132 98.7 4.2 88 13.6
2009-11-16 13:58:18 51°23.746 3°15.243 100.3 4.2 89 13.4
2009-11-16 13:59:18 51°23.748 3°15.352 101.2 4 89 13.2
2009-11-16 14:00:18 51°23.749 3°15.458 102 4 87 13.4
2009-11-16 14:01:18 51°23.741 3°15.555 128.3 3.4 106 13.2
2009-11-16 14:02:18 51°23.721 3°15.647 131.5 3.8 112 13.3
2009-11-16 14:03:18 51°23.698 3°15.741 132.4 3.8 114 13.2
2009-11-16 14:04:18 51°23.669 3°15.824 147.5 3.5 123 13.3
2009-11-16 14:05:18 51°23.635 3°15.895 156.8 3.1 135 13
2009-11-16 14:06:18 51°23.613 3°15.949 163.8 2.1 108 13.1
2009-11-16 14:07:18 51°23.608 3°15.998 157.2 1.7 93 12.6
2009-11-16 14:08:18 51°23.609 3°16.042 161.2 1.6 80 12.9
2009-11-16 14:09:18 51°23.61 3°16.089 160.1 2.2 124 12.8
2009-11-16 14:10:18 51°23.553 3°16.092 219.6 4.2 215 12.2
2009-11-16 14:11:18 51°23.547 3°15.965 268.9 6.4 274 12.1
2009-11-16 14:12:18 51°23.547 3°15.747 261.2 9.2 263 12.1
2009-11-16 14:13:18 51°23.512 3°15.5 253.8 9.7 256 11.8
2009-11-16 14:14:18 51°23.472 3°15.253 254.2 9.5 256 11.6
2009-11-16 14:15:18 51°23.434 3°15.007 254.8 9.6 257 11.3
2009-11-16 14:16:18 51°23.397 3°14.763 254 9.2 255 10.7
2009-11-16 14:17:18 51°23.36 3°14.524 253.5 9.2 255 11.7
2009-11-16 14:18:18 51°23.325 3°14.287 255.6 9.1 258 11.5
2009-11-16 14:19:18 51°23.293 3°14.049 256 9.1 259 12.1
2009-11-16 14:20:18 51°23.263 3°13.817 255.7 8.8 257 13
2009-11-16 14:21:18 51°23.229 3°13.587 253.9 8.8 257 12.7
2009-11-16 14:22:18 51°23.196 3°13.355 254.5 8.5 257 13.3
2009-11-16 14:23:18 51°23.162 3°13.127 255.3 8.8 258 13.2
2009-11-16 14:24:18 51°23.13 3°12.902 255.4 8.6 258 13.1
2009-11-16 14:25:18 51°23.101 3°12.682 255.1 8.8 257 13.3
2009-11-16 14:26:19 51°23.073 3°12.458 255.7 8.2 260 13.2
2009-11-16 14:27:17 51°23.043 3°12.248 251.8 8.7 254 13.8
2009-11-16 14:28:17 51°22.997 3°12.024 249.6 8.9 251 13.5
2009-11-16 14:29:17 51°22.95 3°11.803 249 8.9 252 14.5
2009-11-16 14:30:17 51°22.906 3°11.583 249.5 8.8 253 15.3
2009-11-16 14:31:17 51°22.862 3°11.361 250.6 8.8 254 15
2009-11-16 14:32:18 51°22.82 3°11.129 250.5 9.3 254 15.2
2009-11-16 14:33:18 51°22.777 3°10.898 250.5 9 254 16.1
2009-11-16 14:34:18 51°22.734 3°10.669 250.2 8.6 253 15.6
2009-11-16 14:35:18 51°22.692 3°10.445 249.9 9.2 253 16.3
2009-11-16 14:36:17 51°22.648 3°10.215 249.9 9.1 253 19.6
2009-11-16 14:37:18 51°22.603 3°9.977 250.5 9.2 253 17.4
2009-11-16 14:38:18 51°22.556 3°9.746 250 8.8 252 16.6
2009-11-16 14:39:18 51°22.512 3°9.512 250.7 9.2 251 15.7
2009-11-16 14:40:18 51°22.466 3°9.289 248.4 9 248 15.3
2009-11-16 14:41:17 51°22.406 3°9.067 244.1 9.4 247 14.7
2009-11-16 14:42:19 51°22.34 3°8.837 243.7 8.8 247 14.6
2009-11-16 14:43:18 51°22.279 3°8.62 244.8 8.5 245 -999
2009-11-16 14:44:18 51°22.217 3°8.398 243.6 9.2 245 13.3
2009-11-16 14:45:18 51°22.154 3°8.173 244.7 9.1 247 14.3
2009-11-16 14:46:18 51°22.089 3°7.941 242.7 9.4 244 13.9
2009-11-16 14:47:17 51°22.025 3°7.713 244.3 10 246 13.1
2009-11-16 14:48:18 51°21.961 3°7.476 243.3 9.1 244 12.9
2009-11-16 14:49:17 51°21.9 3°7.252 244 9.5 248 13.2
2009-11-16 14:50:18 51°21.835 3°7.01 244.7 9.4 246 -999
2009-11-16 14:51:17 51°21.771 3°6.771 244.4 10 248 12.9
2009-11-16 14:52:17 51°21.709 3°6.532 244.7 9.5 247 11.4
2009-11-16 14:53:18 51°21.646 3°6.294 243.7 9.9 248 12.1
2009-11-16 14:54:17 51°21.586 3°6.07 244.4 9.4 249 12.1
2009-11-16 14:55:18 51°21.525 3°5.835 244.2 9.6 248 12
2009-11-16 14:56:18 51°21.465 3°5.611 243 8.6 247 -999
2009-11-16 14:57:18 51°21.406 3°5.382 244.6 9.4 250 10.7
2009-11-16 14:58:18 51°21.344 3°5.15 244 9.9 247 11.3
2009-11-16 14:59:18 51°21.283 3°4.921 245.4 9.2 247 11.5
2009-11-16 15:00:17 51°21.224 3°4.695 244.5 9.4 249 11.3
2009-11-16 15:01:18 51°21.167 3°4.457 246.6 9.2 249 10.9
2009-11-16 15:02:19 51°21.116 3°4.236 247.3 9.2 251 10.8
2009-11-16 15:03:19 51°21.061 3°4.011 245.6 8.4 249 -999
2009-11-16 15:04:18 51°21.009 3°3.792 246.7 8.9 248 10.7
2009-11-16 15:05:18 51°20.954 3°3.567 245.7 8.3 247 -999
2009-11-16 15:06:18 51°20.903 3°3.353 246.4 9 250 10.3
2009-11-16 15:07:18 51°20.852 3°3.133 247.4 9.2 250 10.1
2009-11-16 15:08:18 51°20.798 3°2.915 246.9 8.7 247 11.9
2009-11-16 15:09:20 51°20.745 3°2.698 244.8 9 254 10
2009-11-16 15:10:18 51°20.69 3°2.478 243.3 9.6 246 10.7
2009-11-16 15:11:18 51°20.625 3°2.266 241.3 8.9 243 10.3
2009-11-16 15:12:19 51°20.56 3°2.05 241.6 7.9 246 -999
2009-11-16 15:13:19 51°20.499 3°1.842 242.3 8.7 244 -999
2009-11-16 15:14:18 51°20.436 3°1.625 242.5 8.9 245 10.5
2009-11-16 15:15:18 51°20.374 3°1.414 241.9 9.2 242 10.6
2009-11-16 15:16:18 51°20.313 3°1.189 245.4 9.1 245 -999
2009-11-16 15:17:20 51°20.256 3°0.963 244.9 8.3 251 -999
2009-11-16 15:18:18 51°20.203 3°0.748 244.7 9.3 246 9.9
2009-11-16 15:19:19 51°20.139 3°0.536 241.8 7.9 238 -999
2009-11-16 15:20:19 51°20.079 3°0.335 240.7 9 245 10.5
2009-11-16 15:21:18 51°20.015 3°0.117 241.9 9.3 244 10.4
2009-11-16 15:22:18 51°19.945 2°59.888 242.2 9.5 244 10.9
2009-11-16 15:23:17 51°19.881 2°59.664 244.3 9.1 247 9.9
2009-11-16 15:24:17 51°19.813 2°59.44 242.3 9.5 246 9.2
2009-11-16 15:25:18 51°19.745 2°59.215 242.6 8.8 244 9.7
2009-11-16 15:26:18 51°19.68 2°59 240.4 8.7 243 -999
2009-11-16 15:27:18 51°19.617 2°58.787 243.2 8.9 246 9.6
2009-11-16 15:28:17 51°19.554 2°58.576 241.8 9.1 242 9.5
2009-11-16 15:29:19 51°19.487 2°58.364 242.8 8.5 245 -999
2009-11-16 15:30:18 51°19.427 2°58.149 243.5 9.6 247 10.3
2009-11-16 15:31:19 51°19.36 2°57.928 241.6 8.9 244 10
2009-11-16 15:32:19 51°19.299 2°57.717 243.3 9.2 246 9.4
2009-11-16 15:33:18 51°19.233 2°57.497 241.7 8.7 241 -999
2009-11-16 15:34:19 51°19.169 2°57.275 244 9.3 244 10.1
2009-11-16 15:35:35 51°19.085 2°56.995 242.5 9.4 245 9.9
2009-11-16 15:36:35 51°19.021 2°56.781 243.2 9.2 244 10.7
2009-11-16 15:37:37 51°18.953 2°56.559 240.6 8.6 240 10.4
2009-11-16 15:38:35 51°18.873 2°56.366 232.2 9.5 234 10.9
2009-11-16 15:39:37 51°18.778 2°56.173 230.9 9 227 11.6
2009-11-16 15:40:35 51°18.688 2°55.984 233 9.3 233 10.6
2009-11-16 15:41:35 51°18.597 2°55.775 233.1 9.7 236 10.5
2009-11-16 15:42:35 51°18.508 2°55.565 232.9 9.6 234 10.5
2009-11-16 15:43:35 51°18.42 2°55.355 234.1 9.3 236 9.7
2009-11-16 15:44:35 51°18.333 2°55.144 234.7 9.3 237 -999
2009-11-16 15:45:37 51°18.244 2°54.931 234.6 8.7 237 -999
2009-11-16 15:46:36 51°18.159 2°54.727 234.4 9.1 237 10.2
2009-11-16 15:47:37 51°18.07 2°54.52 234.4 8.9 237 9.6
2009-11-16 15:48:35 51°18.008 2°54.304 247.1 9.6 250 10.4
2009-11-16 15:49:37 51°17.955 2°54.066 248.5 8.9 252 9.5
2009-11-16 15:50:36 51°17.905 2°53.831 248.2 9.6 252 9.3
2009-11-16 15:51:35 51°17.853 2°53.601 247.6 9.8 250 9.6
2009-11-16 15:52:35 51°17.798 2°53.36 246.1 9.8 249 10.4
2009-11-16 15:53:35 51°17.738 2°53.115 244 9.8 246 10.8
2009-11-16 15:54:36 51°17.662 2°52.885 236.5 9.1 238 10.3
2009-11-16 15:55:35 51°17.571 2°52.69 229.2 9.8 231 10.5
2009-11-16 15:56:35 51°17.452 2°52.513 213.5 9.4 210 9.8
2009-11-16 15:57:36 51°17.294 2°52.476 176.4 9.8 178 10.2
2009-11-16 15:58:35 51°17.136 2°52.518 170.4 9.9 170 10.1
2009-11-16 15:59:35 51°16.978 2°52.584 166.5 9.7 164 10.8
2009-11-16 16:00:35 51°16.823 2°52.678 159.3 10.3 152 10.2
2009-11-16 16:01:35 51°16.669 2°52.788 158.2 10 163 10.8
2009-11-16 16:02:35 51°16.514 2°52.905 157.2 10.2 154 12.1
2009-11-16 16:03:35 51°16.357 2°53.014 158.2 10.3 156 13.1
2009-11-16 16:04:36 51°16.198 2°53.119 160 10.1 155 11.9
2009-11-16 16:05:35 51°16.045 2°53.231 156.2 9.8 163 -999
2009-11-16 16:06:36 51°15.892 2°53.353 156.4 10.2 158 11.9
2009-11-16 16:07:35 51°15.741 2°53.472 151.8 10.3 156 11.4
2009-11-16 16:08:36 51°15.585 2°53.592 154.2 10.2 160 10.4
2009-11-16 16:09:35 51°15.435 2°53.714 153.7 10.6 158 10
2009-11-16 16:10:35 51°15.276 2°53.81 167.7 10 166 9.8
2009-11-16 16:11:35 51°15.109 2°53.855 168.5 10.5 173 10.1
2009-11-16 16:12:35 51°14.944 2°53.895 167.4 9.6 161 9.5
2009-11-16 16:13:36 51°14.815 2°54.072 130.9 10.4 132 9.5
2009-11-16 16:14:35 51°14.711 2°54.288 124.7 10.5 124 10.3
2009-11-16 16:15:35 51°14.614 2°54.528 121 10.8 125 10.4
2009-11-16 16:16:35 51°14.506 2°54.751 129.3 11.1 133 10.5
2009-11-16 16:17:35 51°14.397 2°54.973 126 10.5 125 10
2009-11-16 16:18:35 51°14.294 2°55.197 128.5 10.3 129 10.6
2009-11-16 16:19:35 51°14.181 2°55.363 144.6 8.2 146 10.6
2009-11-16 16:20:35 51°14.07 2°55.453 153.9 6.9 156 10.2
2009-11-16 16:21:35 51°13.971 2°55.527 153.3 6.7 155 10.8
2009-11-16 16:22:35 51°13.862 2°55.605 154.8 7.4 155 10.8
2009-11-16 16:23:39 51°13.764 2°55.699 132.8 5.5 137 -999
2009-11-16 16:24:39 51°13.712 2°55.805 123.3 4.7 123 -999
2009-11-16 16:25:39 51°13.675 2°55.903 113.3 3.8 115 -999
2009-11-16 16:26:39 51°13.663 2°55.958 118.1 0.3 123 -999